Time;durP1;ratioP1;P1;durP2;ratioP2;P2;SDS_P1;SDS_P2;PMS_P1;PMS_P2;Temp;Humidity;BMP_temperature;BMP_pressure;BME280_temperature;BME280_humidity;BME280_pressure;Samples;Min_cycle;Max_cycle;Signal;HPM_P1;HPM_P2
2022/07/20 00:02:12;;;;;;;3.03;1.10;;;;;;;27.34;35.09;101688.72;143725;590;47002;-71
2022/07/20 00:04:39;;;;;;;5.32;1.30;;;;;;;27.35;35.35;101670.22;143724;604;47010;-70
2022/07/20 00:07:05;;;;;;;3.00;1.00;;;;;;;27.34;35.50;101668.56;143723;609;47004;-70
2022/07/20 00:12:16;;;;;;;4.35;2.05;;;;;;;27.42;36.14;101678.16;143727;603;47009;-68
2022/07/20 00:14:43;;;;;;;3.78;1.58;;;;;;;27.35;35.93;101679.34;143726;605;46012;-69
2022/07/20 00:17:09;;;;;;;2.83;1.52;;;;;;;27.28;36.58;101673.31;143722;608;47006;-69
2022/07/20 00:19:35;;;;;;;2.65;1.10;;;;;;;27.31;35.65;101674.66;143724;606;47002;-68
2022/07/20 00:22:02;;;;;;;3.58;1.20;;;;;;;27.31;36.10;101669.16;143723;612;47004;-68
2022/07/20 00:24:28;;;;;;;5.87;1.10;;;;;;;27.28;36.24;101662.28;143725;606;47010;-68
2022/07/20 00:26:54;;;;;;;2.08;1.20;;;;;;;27.26;35.88;101660.94;143721;614;47006;-70
2022/07/20 00:29:21;;;;;;;5.10;1.30;;;;;;;27.28;36.17;101670.56;143725;588;46923;-69
2022/07/20 00:31:47;;;;;;;4.37;1.30;;;;;;;27.33;36.43;101667.78;143726;579;47005;-68
2022/07/20 00:34:14;;;;;;;1.77;1.12;;;;;;;27.28;36.90;101667.81;143723;651;47013;-67
2022/07/20 00:36:40;;;;;;;1.92;1.20;;;;;;;27.18;37.13;101670.66;143724;582;47004;-68
2022/07/20 00:39:06;;;;;;;2.22;1.12;;;;;;;27.09;37.52;101667.69;143725;585;46008;-67
2022/07/20 00:41:33;;;;;;;3.37;1.15;;;;;;;27.09;37.35;101673.22;143722;567;47004;-70
2022/07/20 00:44:06;;;;;;;3.28;1.20;;;;;;;27.08;37.27;101671.56;143722;608;47010;-69
2022/07/20 00:46:35;;;;;;;5.35;1.60;;;;;;;27.04;37.44;101671.28;143723;713;47006;-69
2022/07/20 00:49:02;;;;;;;2.00;1.05;;;;;;;27.00;37.65;101670.25;143727;603;46009;-69
2022/07/20 00:51:29;;;;;;;2.95;1.25;;;;;;;26.96;37.83;101669.16;143724;595;47004;-69
2022/07/20 00:53:55;;;;;;;9.98;1.35;;;;;;;26.96;37.69;101673.84;143725;575;47012;-69
2022/07/20 00:56:22;;;;;;;3.72;1.20;;;;;;;26.95;38.11;101670.28;143723;567;47007;-69
2022/07/20 00:58:49;;;;;;;3.03;1.45;;;;;;;26.92;38.13;101660.63;143725;588;46923;-69
2022/07/20 01:01:16;;;;;;;4.18;1.40;;;;;;;26.86;37.99;101663.72;143724;591;47006;-69
2022/07/20 01:03:44;;;;;;;3.70;1.15;;;;;;;26.85;38.17;101671.16;143726;584;47011;-69
2022/07/20 01:06:10;;;;;;;2.85;1.30;;;;;;;26.80;38.25;101664.88;143723;576;47006;-69
2022/07/20 01:08:37;;;;;;;7.68;1.80;;;;;;;26.83;38.72;101664.31;143725;600;46008;-68
2022/07/20 01:11:04;;;;;;;8.27;1.55;;;;;;;26.87;38.13;101671.72;143725;573;47006;-68
2022/07/20 01:13:30;;;;;;;7.97;1.80;;;;;;;26.82;38.85;101668.16;143723;688;47012;-68
2022/07/20 01:15:57;;;;;;;3.60;1.25;;;;;;;26.84;37.19;101657.66;143721;699;47006;-68
2022/07/20 01:18:23;;;;;;;4.70;1.35;;;;;;;26.86;37.64;101666.47;143725;579;46924;-68
2022/07/20 01:20:50;;;;;;;2.58;1.30;;;;;;;26.87;38.02;101673.63;143725;577;47004;-75
2022/07/20 01:23:19;;;;;;;5.78;1.40;;;;;;;26.83;38.66;101673.38;143723;611;47012;-69
2022/07/20 01:25:45;;;;;;;7.87;1.50;;;;;;;26.80;38.85;101671.19;143722;706;47006;-69
2022/07/20 01:28:14;;;;;;;5.47;1.70;;;;;;;26.80;38.58;101662.94;143725;592;46008;-69
2022/07/20 01:30:42;;;;;;;5.07;1.52;;;;;;;26.82;37.72;101668.16;143724;607;47006;-69
2022/07/20 01:33:09;;;;;;;3.50;1.33;;;;;;;26.81;38.14;101664.56;143727;594;46026;-70
2022/07/20 01:35:35;;;;;;;3.35;1.75;;;;;;;26.73;38.16;101660.47;143725;572;47004;-69
2022/07/20 01:38:02;;;;;;;2.65;0.98;;;;;;;26.74;38.58;101656.59;143724;698;46008;-69
2022/07/20 01:40:28;;;;;;;7.68;1.20;;;;;;;26.66;39.16;101657.19;143726;601;47003;-70
2022/07/20 01:42:55;;;;;;;6.50;1.70;;;;;;;26.67;39.37;101661.59;143725;610;46012;-69
2022/07/20 01:45:21;;;;;;;5.32;1.52;;;;;;;26.72;38.76;101658.81;143723;672;47006;-69
2022/07/20 01:47:47;;;;;;;2.90;1.30;;;;;;;26.66;39.01;101657.19;143725;570;46008;-70
2022/07/20 01:50:14;;;;;;;5.20;1.20;;;;;;;26.63;39.03;101658.59;143727;569;47006;-70
2022/07/20 01:52:40;;;;;;;5.22;1.45;;;;;;;26.64;38.63;101663.00;143723;610;47010;-70
2022/07/20 01:55:07;;;;;;;2.78;1.42;;;;;;;26.61;39.30;101658.06;143723;622;47005;-70
2022/07/20 01:57:34;;;;;;;2.25;1.10;;;;;;;26.57;39.14;101654.22;143725;611;46924;-69
2022/07/20 02:00:00;;;;;;;5.62;1.83;;;;;;;26.58;39.34;101660.56;143725;626;47004;-69
2022/07/20 02:02:27;;;;;;;4.50;1.33;;;;;;;26.63;39.08;101663.28;143723;582;47010;-69
2022/07/20 02:04:53;;;;;;;2.90;1.50;;;;;;;26.60;38.90;101667.41;143723;629;47006;-69
2022/07/20 02:07:19;;;;;;;1.80;0.90;;;;;;;26.63;38.15;101655.84;143724;604;47008;-69
2022/07/20 02:09:46;;;;;;;4.78;1.23;;;;;;;26.56;37.95;101666.38;143725;583;47004;-68
2022/07/20 02:12:12;;;;;;;3.42;1.00;;;;;;;26.66;38.52;101657.19;143723;632;47013;-68
2022/07/20 02:14:39;;;;;;;5.05;1.20;;;;;;;26.72;38.92;101667.06;143723;594;47006;-70
2022/07/20 02:17:05;;;;;;;4.95;1.40;;;;;;;26.71;39.61;101661.88;143725;573;47008;-69
2022/07/20 02:19:32;;;;;;;5.57;1.00;;;;;;;26.55;38.25;101650.94;143724;587;47004;-69
2022/07/20 02:21:58;;;;;;;3.47;1.20;;;;;;;26.55;40.01;101656.44;143724;576;47010;-69
2022/07/20 02:24:24;;;;;;;4.20;1.30;;;;;;;26.58;39.58;101652.28;143722;573;47006;-71
2022/07/20 02:26:51;;;;;;;3.05;1.30;;;;;;;26.59;39.30;101674.03;143728;657;46023;-69
2022/07/20 02:29:17;;;;;;;3.50;1.45;;;;;;;26.59;39.63;101659.47;143726;632;47004;-69
2022/07/20 02:31:44;;;;;;;7.00;1.60;;;;;;;26.57;39.26;101659.72;143725;613;47012;-69
2022/07/20 02:34:10;;;;;;;4.30;1.10;;;;;;;26.55;39.43;101669.38;143725;569;46010;-69
2022/07/20 02:36:37;;;;;;;4.25;1.30;;;;;;;26.57;39.67;101670.75;143725;646;47008;-70
2022/07/20 02:39:04;;;;;;;7.65;1.45;;;;;;;26.55;39.94;101659.22;143726;702;47006;-70
2022/07/20 02:41:32;;;;;;;2.35;1.40;;;;;;;26.55;39.48;101663.87;143725;658;47013;-69
2022/07/20 02:43:59;;;;;;;4.05;1.20;;;;;;;26.56;39.86;101663.63;143723;625;47006;-70
2022/07/20 02:46:26;;;;;;;4.47;1.35;;;;;;;26.57;40.86;101662.47;143726;587;46008;-69
2022/07/20 02:48:52;;;;;;;6.05;1.65;;;;;;;26.59;41.29;101668.53;143727;640;47010;-70
2022/07/20 02:51:18;;;;;;;3.87;1.20;;;;;;;26.59;40.25;101662.22;143724;616;47012;-70
2022/07/20 02:53:45;;;;;;;4.93;1.45;;;;;;;26.64;40.40;101670.44;143723;568;47007;-69
2022/07/20 02:56:11;;;;;;;3.92;1.30;;;;;;;26.64;40.66;101676.78;143727;576;47008;-70
2022/07/20 02:58:38;;;;;;;5.62;1.50;;;;;;;26.65;41.86;101669.34;143730;576;46008;-71
2022/07/20 03:01:04;;;;;;;6.12;1.20;;;;;;;26.70;41.70;101674.81;143720;567;47010;-71
2022/07/20 03:03:31;;;;;;;3.72;1.20;;;;;;;26.69;42.71;101686.94;143723;749;47006;-70
2022/07/20 03:05:58;;;;;;;4.25;1.10;;;;;;;26.66;42.93;101684.75;143724;724;47008;-71
2022/07/20 03:08:24;;;;;;;5.07;1.40;;;;;;;26.66;41.99;101686.69;143724;663;47004;-70
2022/07/20 03:10:51;;;;;;;4.43;1.20;;;;;;;26.57;40.11;101683.72;143726;666;47010;-69
2022/07/20 03:13:17;;;;;;;5.22;1.73;;;;;;;26.44;40.76;101680.47;143725;618;47006;-69
2022/07/20 03:15:43;;;;;;;2.45;1.25;;;;;;;26.49;41.12;101682.38;143727;594;47008;-70
2022/07/20 03:18:10;;;;;;;4.97;1.50;;;;;;;26.56;41.15;101688.41;143725;594;47006;-69
2022/07/20 03:20:36;;;;;;;1.70;1.08;;;;;;;26.60;41.70;101685.91;143727;630;46012;-69
2022/07/20 03:23:03;;;;;;;3.30;1.10;;;;;;;26.56;41.25;101687.56;143724;567;47006;-70
2022/07/20 03:25:30;;;;;;;3.55;1.42;;;;;;;26.52;41.21;101686.47;143724;647;47008;-70
2022/07/20 03:27:58;;;;;;;6.37;1.25;;;;;;;26.46;41.30;101674.66;143725;612;47004;-69
2022/07/20 03:30:25;;;;;;;4.47;1.50;;;;;;;26.44;40.90;101680.47;143727;577;46010;-69
2022/07/20 03:32:52;;;;;;;3.97;1.40;;;;;;;26.43;40.76;101687.09;143724;570;47006;-70
2022/07/20 03:35:19;;;;;;;4.82;1.87;;;;;;;26.46;40.96;101688.44;143725;610;47008;-70
2022/07/20 03:37:45;;;;;;;4.20;1.48;;;;;;;26.42;41.25;101682.69;143724;712;47004;-70
2022/07/20 03:40:12;;;;;;;4.43;1.20;;;;;;;26.40;41.30;101684.91;143725;696;46922;-70
2022/07/20 03:42:38;;;;;;;7.03;1.50;;;;;;;26.39;41.60;101683.25;143724;617;47006;-69
2022/07/20 03:45:06;;;;;;;3.75;1.48;;;;;;;26.36;41.66;101678.28;143725;573;46008;-69
2022/07/20 03:47:33;;;;;;;7.10;2.42;;;;;;;26.32;41.76;101674.44;143725;650;47006;-69
2022/07/20 03:50:00;;;;;;;6.00;2.10;;;;;;;26.38;41.67;101692.62;143724;687;46012;-69
2022/07/20 03:52:27;;;;;;;4.20;1.70;;;;;;;26.39;42.06;101690.66;143725;602;47006;-69
2022/07/20 03:54:53;;;;;;;4.47;1.52;;;;;;;26.35;41.37;101693.16;143726;569;47008;-70
2022/07/20 03:57:19;;;;;;;4.87;1.70;;;;;;;26.35;41.20;101695.13;143722;603;48004;-69
2022/07/20 03:59:46;;;;;;;3.47;1.85;;;;;;;26.40;42.10;101689.56;143726;573;46012;-70
2022/07/20 04:02:12;;;;;;;4.62;1.42;;;;;;;26.38;41.28;101686.28;143724;701;47004;-70
2022/07/20 04:04:39;;;;;;;4.22;1.70;;;;;;;26.36;41.61;101700.31;143726;590;47008;-69
2022/07/20 04:07:05;;;;;;;8.85;2.00;;;;;;;26.37;42.35;101701.16;143728;639;47006;-69
2022/07/20 04:09:43;;;;;;;9.65;1.92;;;;;;;26.33;41.30;101678.84;143727;592;46011;-70
2022/07/20 04:12:13;;;;;;;6.32;1.85;;;;;;;26.33;41.72;101693.47;143723;568;47006;-69
2022/07/20 04:14:40;;;;;;;8.18;2.08;;;;;;;26.36;41.22;101680.25;143724;577;46008;-70
2022/07/20 04:17:07;;;;;;;5.50;1.60;;;;;;;26.37;41.27;101687.41;143726;595;47004;-69
2022/07/20 04:19:35;;;;;;;8.40;1.98;;;;;;;26.42;41.26;101707.47;143725;576;46012;-70
2022/07/20 04:22:01;;;;;;;5.35;1.77;;;;;;;26.40;41.48;101687.66;143728;628;46010;-69
2022/07/20 04:24:28;;;;;;;4.70;2.15;;;;;;;26.40;41.83;101684.06;143727;695;46009;-69
2022/07/20 04:26:54;;;;;;;3.85;1.58;;;;;;;26.41;41.46;101699.47;143725;595;47004;-69
2022/07/20 04:29:22;;;;;;;5.90;1.67;;;;;;;26.45;41.39;101698.66;143728;569;46025;-68
2022/07/20 04:31:49;;;;;;;6.97;1.50;;;;;;;26.52;41.69;101716.78;143723;604;47006;-69
2022/07/20 04:34:16;;;;;;;3.12;1.58;;;;;;;26.60;42.00;101696.91;143727;595;47008;-69
2022/07/20 04:36:42;;;;;;;3.05;1.83;;;;;;;26.60;41.11;101694.16;143726;697;47006;-69
2022/07/20 04:39:09;;;;;;;4.72;1.92;;;;;;;26.70;41.57;101715.34;143722;595;47011;-69
2022/07/20 04:41:35;;;;;;;10.52;2.25;;;;;;;26.71;41.76;101709.53;143724;696;47006;-69
2022/07/20 04:44:01;;;;;;;6.57;1.70;;;;;;;26.76;41.17;101706.75;143726;587;46923;-69
2022/07/20 04:46:28;;;;;;;7.50;2.17;;;;;;;26.82;42.19;101718.59;143727;648;47002;-69
2022/07/20 04:48:55;;;;;;;4.47;1.73;;;;;;;26.83;42.62;101730.47;143724;695;47010;-70
2022/07/20 04:51:22;;;;;;;5.72;1.77;;;;;;;26.85;42.37;101722.69;143722;732;47006;-69
2022/07/20 04:53:48;;;;;;;3.58;1.65;;;;;;;26.82;41.34;101710.31;143726;610;47008;-69
2022/07/20 04:56:16;;;;;;;6.28;1.52;;;;;;;26.83;40.72;101709.22;143724;568;47004;-69
2022/07/20 04:58:42;;;;;;;9.50;1.60;;;;;;;26.86;40.71;101721.59;143725;678;47010;-70
2022/07/20 05:01:09;;;;;;;13.48;2.60;;;;;;;26.98;40.71;101724.84;143724;576;47006;-69
2022/07/20 05:03:35;;;;;;;5.03;1.62;;;;;;;27.08;40.77;101726.72;143723;670;47008;-70
2022/07/20 05:06:02;;;;;;;7.68;1.75;;;;;;;27.14;40.31;101720.03;143725;605;47004;-70
2022/07/20 05:08:29;;;;;;;4.43;1.95;;;;;;;27.20;40.41;101729.09;143727;595;47011;-70
2022/07/20 05:10:55;;;;;;;3.53;1.45;;;;;;;27.24;39.90;101716.38;143723;603;47004;-69
2022/07/20 05:13:22;;;;;;;5.10;1.40;;;;;;;27.29;39.90;101721.84;143727;663;46006;-69
2022/07/20 05:15:48;;;;;;;4.70;1.42;;;;;;;27.34;39.45;101729.25;143727;729;47000;-69
2022/07/20 05:18:14;;;;;;;3.87;1.23;;;;;;;27.40;40.01;101736.41;143725;662;47008;-69
2022/07/20 05:20:41;;;;;;;5.93;2.03;;;;;;;27.46;40.55;101735.25;143724;572;47004;-69
2022/07/20 05:23:07;;;;;;;3.87;1.60;;;;;;;27.49;40.20;101733.88;143725;582;47006;-69
2022/07/20 05:25:38;;;;;;;3.03;1.10;;;;;;;27.54;40.07;101739.31;143726;644;47002;-69
2022/07/20 05:28:05;;;;;;;2.58;1.30;;;;;;;27.58;40.84;101739.59;143726;617;47008;-69
2022/07/20 05:30:31;;;;;;;7.57;1.65;;;;;;;27.61;38.79;101741.78;143727;567;47005;-69
2022/07/20 05:32:58;;;;;;;2.70;1.50;;;;;;;27.51;37.51;101735.22;143724;591;47006;-69
2022/07/20 05:35:24;;;;;;;5.78;1.83;;;;;;;27.60;38.82;101743.69;143726;645;47002;-69
2022/07/20 05:37:50;;;;;;;2.97;1.25;;;;;;;27.72;38.92;101748.00;143722;573;49002;-69
2022/07/20 05:40:18;;;;;;;5.40;1.33;;;;;;;27.80;39.88;101739.91;143723;573;47004;-70
2022/07/20 05:42:44;;;;;;;8.77;1.60;;;;;;;27.88;40.67;101740.41;143725;567;47006;-67
2022/07/20 05:45:11;;;;;;;4.90;1.62;;;;;;;27.95;40.57;101730.66;143725;643;47002;-66
2022/07/20 05:47:37;;;;;;;19.10;17.33;;;;;;;28.02;40.07;101732.25;143725;618;46010;-64
2022/07/20 05:50:04;;;;;;;7.82;4.65;;;;;;;28.07;40.30;101741.31;143723;572;47004;-66
2022/07/20 05:52:30;;;;;;;4.87;1.87;;;;;;;28.14;41.16;101740.97;143723;591;46923;-66
2022/07/20 05:54:57;;;;;;;3.35;1.75;;;;;;;28.21;40.47;101743.38;143725;608;47002;-67
2022/07/20 05:57:23;;;;;;;5.22;1.40;;;;;;;28.27;40.11;101756.03;143725;603;47008;-66
2022/07/20 05:59:50;;;;;;;7.10;1.50;;;;;;;28.31;39.83;101754.34;143723;575;47004;-66
2022/07/20 06:02:16;;;;;;;3.83;1.30;;;;;;;28.33;40.71;101746.56;143725;602;46006;-66
2022/07/20 06:04:42;;;;;;;5.68;1.55;;;;;;;28.38;41.16;101746.50;143725;602;47002;-66
2022/07/20 06:07:09;;;;;;;5.00;1.83;;;;;;;28.43;40.97;101753.91;143724;598;47008;-66
2022/07/20 06:09:35;;;;;;;2.37;1.20;;;;;;;28.44;40.83;101744.50;143724;568;47004;-66
2022/07/20 06:12:02;;;;;;;7.22;1.77;;;;;;;28.48;40.39;101753.03;143726;596;47006;-66
2022/07/20 06:14:28;;;;;;;7.25;1.75;;;;;;;28.50;40.70;101734.22;143726;566;47002;-66
2022/07/20 06:16:55;;;;;;;4.65;1.60;;;;;;;28.57;39.74;101734.66;143724;604;46011;-66
2022/07/20 06:19:21;;;;;;;5.22;2.20;;;;;;;28.55;39.83;101745.19;143724;626;47004;-67
2022/07/20 06:21:48;;;;;;;4.87;2.35;;;;;;;28.56;40.16;101738.53;143726;580;47006;-67
2022/07/20 06:24:17;;;;;;;4.12;2.05;;;;;;;28.55;40.47;101737.72;143726;637;47000;-66
2022/07/20 06:26:43;;;;;;;5.15;2.90;;;;;;;28.56;40.20;101738.53;143725;597;46921;-67
2022/07/20 06:29:09;;;;;;;3.70;2.20;;;;;;;28.62;39.87;101731.84;143726;569;47002;-66
2022/07/20 06:31:36;;;;;;;3.78;1.50;;;;;;;28.65;39.70;101730.41;143723;580;47006;-67
2022/07/20 06:34:06;;;;;;;2.80;1.80;;;;;;;28.67;39.82;101729.00;143725;588;47002;-67
2022/07/20 06:36:33;;;;;;;3.28;2.30;;;;;;;28.74;39.12;101731.44;143723;593;47008;-67
2022/07/20 06:38:59;;;;;;;3.00;1.48;;;;;;;28.82;39.67;101729.94;143723;633;47005;-67
2022/07/20 06:41:25;;;;;;;7.65;1.50;;;;;;;28.87;35.28;101736.22;143724;609;46006;-67
2022/07/20 06:43:52;;;;;;;3.10;1.58;;;;;;;28.94;38.18;101735.03;143726;586;47000;-67
2022/07/20 06:46:18;;;;;;;5.72;1.50;;;;;;;29.00;38.64;101734.66;143721;601;47008;-68
2022/07/20 06:48:45;;;;;;;11.43;9.25;;;;;;;29.05;39.53;101726.25;143720;610;47004;-67
2022/07/20 06:51:11;;;;;;;30.35;26.85;;;;;;;29.08;38.24;101724.84;143723;573;47006;-67
2022/07/20 06:53:38;;;;;;;5.87;2.22;;;;;;;29.04;38.50;101723.81;143722;572;47002;-68
2022/07/20 06:56:05;;;;;;;4.35;1.60;;;;;;;29.08;39.71;101732.31;143725;633;46008;-66
2022/07/20 06:58:31;;;;;;;3.97;1.62;;;;;;;29.15;39.87;101721.69;143725;597;47008;-67
2022/07/20 07:00:57;;;;;;;3.10;1.70;;;;;;;29.22;40.19;101711.06;143721;603;49003;-68
2022/07/20 07:03:24;;;;;;;21.80;18.30;;;;;;;29.22;39.32;101721.31;143723;567;47002;-71
2022/07/20 07:05:50;;;;;;;8.75;2.87;;;;;;;29.27;38.68;101722.03;143722;566;46010;-69
2022/07/20 07:08:16;;;;;;;4.15;1.90;;;;;;;29.31;37.57;101720.31;143721;625;47004;-68
2022/07/20 07:10:42;;;;;;;3.92;1.50;;;;;;;29.41;37.21;101704.69;143722;600;47006;-68
2022/07/20 07:13:09;;;;;;;4.03;1.60;;;;;;;29.44;36.47;101712.38;143723;607;47004;-67
2022/07/20 07:15:35;;;;;;;3.42;1.70;;;;;;;29.51;34.04;101701.75;143724;573;46921;-67
2022/07/20 07:18:02;;;;;;;2.95;1.45;;;;;;;29.58;34.74;101704.94;143722;664;47008;-67
2022/07/20 07:20:28;;;;;;;3.72;1.42;;;;;;;29.64;32.80;101712.03;143722;566;47006;-66
2022/07/20 07:22:55;;;;;;;4.80;1.55;;;;;;;29.73;31.75;101728.75;143724;569;47002;-66
2022/07/20 07:25:21;;;;;;;2.40;1.23;;;;;;;29.83;31.04;101727.75;143722;596;47008;-68
2022/07/20 07:27:48;;;;;;;3.70;1.10;;;;;;;29.90;29.48;101722.66;143723;605;47004;-67
2022/07/20 07:30:14;;;;;;;3.12;1.08;;;;;;;29.98;30.57;101717.53;143724;595;46014;-67
2022/07/20 07:32:40;;;;;;;3.78;1.12;;;;;;;30.03;30.17;101714.66;143723;617;47002;-67
2022/07/20 07:35:07;;;;;;;3.42;1.00;;;;;;;30.09;29.76;101719.81;143724;596;46010;-67
2022/07/20 07:37:38;;;;;;;3.12;1.42;;;;;;;30.17;29.60;101718.25;143722;617;47004;-67
2022/07/20 07:40:05;;;;;;;2.45;1.05;;;;;;;30.22;28.06;101720.94;143724;678;46006;-67
2022/07/20 07:42:31;;;;;;;2.28;1.00;;;;;;;30.29;28.65;101720.50;143723;607;47000;-67
2022/07/20 07:44:59;;;;;;;4.95;1.30;;;;;;;30.34;27.92;101725.13;143723;617;47009;-64
2022/07/20 07:47:25;;;;;;;3.10;0.98;;;;;;;30.39;28.21;101717.50;143720;662;47004;-65
2022/07/20 07:49:52;;;;;;;3.00;1.00;;;;;;;30.43;27.83;101716.91;143725;573;47006;-65
2022/07/20 07:52:18;;;;;;;5.65;1.10;;;;;;;30.49;27.85;101715.66;143725;598;47002;-68
2022/07/20 07:54:44;;;;;;;3.03;0.98;;;;;;;30.55;28.49;101714.44;143721;603;46011;-66
2022/07/20 07:57:11;;;;;;;2.15;1.00;;;;;;;30.53;25.39;101708.37;143721;710;47004;-64
2022/07/20 07:59:37;;;;;;;2.97;1.10;;;;;;;30.46;26.18;101703.22;143725;569;46007;-65
2022/07/20 08:02:04;;;;;;;2.72;1.20;;;;;;;30.49;28.00;101716.47;143723;604;47004;-64
2022/07/20 08:04:30;;;;;;;2.22;1.30;;;;;;;30.50;27.78;101700.69;143726;626;47008;-66
2022/07/20 08:06:57;;;;;;;6.22;3.00;;;;;;;30.49;26.38;101712.91;223078;57;61394;-66
2022/07/20 08:09:23;;;;;;;2.97;2.15;;;;;;;30.57;27.49;101708.59;143724;658;47006;-65
2022/07/20 08:11:50;;;;;;;6.78;2.03;;;;;;;30.59;27.43;101718.22;143723;567;47004;-66
2022/07/20 08:14:16;;;;;;;5.78;2.30;;;;;;;30.69;27.43;101718.03;143722;692;47010;-66
2022/07/20 08:16:42;;;;;;;3.55;1.17;;;;;;;30.68;26.94;101716.38;143723;598;47004;-66
2022/07/20 08:19:09;;;;;;;4.53;1.30;;;;;;;30.73;27.70;101715.44;143723;687;47006;-66
2022/07/20 08:21:36;;;;;;;3.75;1.00;;;;;;;30.83;26.40;101719.94;143726;600;47000;-66
2022/07/20 08:24:04;;;;;;;2.35;0.82;;;;;;;30.88;26.29;101708.72;143723;591;47004;-66
2022/07/20 08:26:31;;;;;;;2.97;1.40;;;;;;;30.86;26.32;101708.22;143720;577;49002;-66
2022/07/20 08:28:57;;;;;;;4.03;1.50;;;;;;;30.96;26.76;101710.72;143724;569;46006;-66
2022/07/20 08:31:23;;;;;;;1.60;1.00;;;;;;;31.08;27.71;101723.22;143725;634;47004;-66
2022/07/20 08:33:50;;;;;;;1.73;1.00;;;;;;;31.14;26.74;101719.22;143723;585;47010;-65
2022/07/20 08:36:16;;;;;;;5.60;1.30;;;;;;;31.19;26.50;101716.31;223364;57;47002;-65
2022/07/20 08:38:42;;;;;;;2.58;1.17;;;;;;;31.27;26.60;101717.53;143725;633;46006;-65
2022/07/20 08:41:10;;;;;;;3.97;1.10;;;;;;;31.37;26.99;101719.22;207732;57;51492;-65
2022/07/20 08:43:36;;;;;;;2.87;1.08;;;;;;;31.46;27.19;101714.53;143694;57;49733;-68
2022/07/20 08:46:02;;;;;;;2.03;1.42;;;;;;;31.54;26.53;101729.59;143725;573;46011;-67
2022/07/20 08:48:29;;;;;;;5.75;1.37;;;;;;;31.57;26.32;101738.13;143725;592;47008;-68
2022/07/20 08:50:56;;;;;;;1.45;0.90;;;;;;;31.61;25.15;101716.91;143725;651;47002;-67
2022/07/20 08:53:22;;;;;;;1.75;0.95;;;;;;;31.58;24.14;101711.16;143722;697;47011;-68
2022/07/20 08:55:49;;;;;;;1.58;0.93;;;;;;;31.61;25.10;101714.13;143722;598;47006;-68
2022/07/20 08:58:15;;;;;;;1.62;0.98;;;;;;;31.71;26.20;101724.16;143726;588;46022;-68
2022/07/20 09:00:42;;;;;;;3.40;1.00;;;;;;;31.77;25.36;101724.87;143726;597;46012;-69
2022/07/20 09:03:09;;;;;;;5.25;1.98;;;;;;;31.82;24.45;101723.91;143722;567;47933;-66
2022/07/20 09:05:39;;;;;;;6.37;1.50;;;;;;;31.84;25.44;101713.31;143724;654;47010;-68
2022/07/20 09:08:08;;;;;;;5.82;1.87;;;;;;;31.86;24.96;101708.25;143720;636;47009;-67
2022/07/20 09:10:38;;;;;;;4.22;1.60;;;;;;;31.89;24.63;101700.09;143722;621;47004;-67
2022/07/20 09:13:17;;;;;;;2.00;1.42;;;;;;;31.94;25.79;101698.31;143723;586;46012;-68
2022/07/20 09:15:54;;;;;;;2.35;1.73;;;;;;;32.01;26.36;101707.81;143723;601;47007;-67
2022/07/20 09:18:32;;;;;;;2.12;1.27;;;;;;;32.10;26.40;101710.63;143725;594;46008;-67
2022/07/20 09:21:07;;;;;;;2.65;2.10;;;;;;;32.23;25.42;101714.38;143722;610;47006;-68
2022/07/20 09:23:47;;;;;;;3.72;1.20;;;;;;;32.31;24.96;101702.50;143721;632;47013;-68
2022/07/20 09:26:15;;;;;;;3.62;1.50;;;;;;;32.36;24.70;101704.31;143723;586;47006;-69
2022/07/20 09:28:49;;;;;;;5.55;1.48;;;;;;;32.46;24.87;101717.94;143725;567;46927;-69
2022/07/20 09:31:22;;;;;;;7.45;2.40;;;;;;;32.54;25.28;101702.41;143722;654;47006;-68
2022/07/20 09:33:51;;;;;;;4.87;1.92;;;;;;;32.56;25.29;101710.41;143719;593;47010;-68
2022/07/20 09:36:20;;;;;;;2.90;1.42;;;;;;;32.55;24.36;101703.19;224046;57;47006;-68
2022/07/20 09:38:46;;;;;;;5.55;1.85;;;;;;;32.54;23.69;101702.41;143675;595;49296;-68
2022/07/20 09:41:28;;;;;;;6.35;1.52;;;;;;;32.60;23.88;101700.28;143722;613;47004;-68
2022/07/20 09:43:56;;;;;;;4.07;1.17;;;;;;;32.65;23.90;101697.34;143719;630;49018;-69
2022/07/20 09:46:28;;;;;;;3.20;1.48;;;;;;;32.73;23.53;101706.84;133849;57;10003775;-68
2022/07/20 09:48:57;;;;;;;3.50;1.73;;;;;;;32.79;24.56;101698.00;143719;629;46929;-69
2022/07/20 09:51:57;;;;;;;3.65;2.10;;;;;;;32.79;25.62;101700.78;143723;581;47008;-70
2022/07/20 09:54:23;;;;;;;3.60;2.97;;;;;;;32.81;25.13;101689.31;143727;569;47012;-70
2022/07/20 09:56:51;;;;;;;3.37;2.20;;;;;;;32.73;24.96;101690.13;143725;567;46010;-70
2022/07/20 09:59:19;;;;;;;3.47;1.45;;;;;;;32.77;25.90;101680.81;143722;601;46011;-70
2022/07/20 10:01:51;;;;;;;3.65;1.70;;;;;;;32.82;25.13;101679.84;143723;574;47008;-70
2022/07/20 10:04:18;;;;;;;7.60;3.78;;;;;;;32.73;25.25;101684.56;143725;618;46015;-71
2022/07/20 10:06:47;;;;;;;3.97;1.50;;;;;;;32.78;24.97;101678.81;143721;576;48006;-71
2022/07/20 10:09:17;;;;;;;1.85;1.30;;;;;;;32.84;25.22;101683.12;143720;641;47006;-74
2022/07/20 10:11:47;;;;;;;2.33;1.40;;;;;;;32.92;25.65;101678.69;143729;584;47002;-72
2022/07/20 10:14:18;;;;;;;2.83;2.00;;;;;;;32.98;25.24;101682.97;143728;590;47004;-73
2022/07/20 10:16:54;;;;;;;3.58;1.40;;;;;;;32.98;25.57;101676.56;143732;634;46010;-73
2022/07/20 10:19:46;;;;;;;8.00;4.62;;;;;;;33.05;24.79;101672.12;143733;590;46011;-74
2022/07/20 10:22:12;;;;;;;6.45;2.90;;;;;;;33.09;24.44;101667.53;143730;608;47008;-74
2022/07/20 10:24:42;;;;;;;8.60;4.97;;;;;;;32.94;23.58;101665.28;143734;567;47004;-72
2022/07/20 10:27:29;;;;;;;3.25;1.90;;;;;;;32.97;24.15;101672.97;143731;605;46012;-72
2022/07/20 10:29:57;;;;;;;3.28;2.42;;;;;;;32.98;23.77;101666.25;143728;572;47006;-71
2022/07/20 10:32:28;;;;;;;9.00;3.80;;;;;;;33.03;23.54;101666.06;143730;594;46925;-70
2022/07/20 10:35:23;;;;;;;5.05;2.05;;;;;;;33.04;23.55;101667.69;143662;57;75242;-70
2022/07/20 10:37:52;;;;;;;3.90;2.67;;;;;;;33.02;24.37;101663.63;143725;649;47010;-71
2022/07/20 10:40:22;;;;;;;5.85;2.00;;;;;;;33.05;23.89;101666.56;143728;600;47006;-71
2022/07/20 10:43:12;;;;;;;4.85;4.35;;;;;;;33.01;22.72;101653.63;143729;614;46927;-73
2022/07/20 10:45:39;;;;;;;2.15;1.70;;;;;;;33.05;24.14;101644.28;143730;670;47004;-73
2022/07/20 10:48:44;;;;;;;4.30;2.35;;;;;;;33.11;24.87;101656.06;143730;608;47006;-71
2022/07/20 10:51:11;;;;;;;9.00;2.65;;;;;;;33.16;24.08;101655.91;143727;573;47007;-71
2022/07/20 10:53:38;;;;;;;8.00;2.53;;;;;;;33.12;24.19;101660.47;143732;627;46008;-72
2022/07/20 10:56:06;;;;;;;4.20;1.48;;;;;;;33.02;23.61;101636.59;143730;592;47004;-72
2022/07/20 10:58:38;;;;;;;2.95;1.70;;;;;;;32.91;23.19;101646.44;143729;583;47012;-69
2022/07/20 11:01:10;;;;;;;3.70;1.55;;;;;;;32.86;24.28;101658.56;143729;593;47006;-70
2022/07/20 11:03:45;;;;;;;4.22;2.65;;;;;;;32.90;23.67;101647.59;143730;585;46927;-68
2022/07/20 11:06:24;;;;;;;3.75;1.73;;;;;;;32.81;23.26;101633.66;143732;575;47004;-69
2022/07/20 11:08:53;;;;;;;5.00;1.92;;;;;;;32.80;24.11;101638.44;143730;574;47012;-69
2022/07/20 11:11:24;;;;;;;5.47;1.70;;;;;;;32.88;24.64;101631.25;143726;642;47004;-68
2022/07/20 11:13:51;;;;;;;4.47;1.83;;;;;;;32.96;24.61;101635.16;143721;593;47009;-70
2022/07/20 11:16:24;;;;;;;3.12;1.77;;;;;;;32.96;23.58;101632.38;143723;586;47004;-70
2022/07/20 11:18:52;;;;;;;2.95;2.00;;;;;;;32.99;24.61;101628.94;143718;623;48006;-69
2022/07/20 11:21:33;;;;;;;2.83;2.28;;;;;;;33.05;24.48;101626.78;143721;591;47006;-69
2022/07/20 11:24:00;;;;;;;3.10;1.73;;;;;;;33.06;24.63;101629.22;143721;579;47012;-69
2022/07/20 11:26:26;;;;;;;6.22;2.53;;;;;;;33.08;23.61;101620.56;143722;567;47006;-69
2022/07/20 11:28:58;;;;;;;3.25;1.50;;;;;;;33.06;23.99;101618.09;143726;616;46026;-69
2022/07/20 11:31:29;;;;;;;5.50;3.25;;;;;;;33.05;23.89;101612.87;143722;576;47006;-70